Figari Sud-Corse Airport

LFKF · South Corsica, Corsica, France

METAR history LFKF · Figari Sud-Corse Airport

Below you see METARs of the last few days. Select a year to browse through older METARs, from the year 2007 onwards.

July 24, 2024

Time Code Weather Temp. Visibility Ceiling Wind METAR/SPECI
18:00
V
28 °C 10 km+ - 230° 230° 17 kt METAR LFKF 241600Z AUTO 23017KT CAVOK 28/22 Q1010 TEMPO 24015G25KT
17:30
V
29 °C 10 km+ - 230° 230° 17 kt METAR LFKF 241530Z AUTO 23017KT CAVOK 29/22 Q1011 TEMPO 24015G25KT
17:00
V
30 °C 10 km+ - 230° 230° 18 kt METAR LFKF 241500Z AUTO 23018KT CAVOK 30/22 Q1011 TEMPO 24015G25KT
16:30
V
29 °C 10 km+ - 240° 240° 18 kt METAR LFKF 241430Z AUTO 24018KT CAVOK 29/22 Q1011 TEMPO 24015G25KT
16:00
V
30 °C 10 km+ - 230° 230° 18 kt METAR LFKF 241400Z AUTO 23018KT CAVOK 30/22 Q1011 TEMPO 24015G25KT
15:30
V
30 °C 10 km+ - 230° 230° 16 kt METAR LFKF 241330Z AUTO 23016KT CAVOK 30/22 Q1011 TEMPO 24015G25KT
15:00
V
30 °C 10 km+ - 230° 230° 16 kt METAR LFKF 241300Z AUTO 23016KT CAVOK 30/22 Q1012 TEMPO 24015G25KT
14:30
V
29 °C 10 km+ - 230° 230° 17 kt METAR LFKF 241230Z AUTO 23017KT CAVOK 29/22 Q1012 TEMPO 24015G25KT
14:00
V
30 °C 10 km+ - 240° 240° 18 kt METAR LFKF 241200Z AUTO 24018KT CAVOK 30/21 Q1012 TEMPO 24015G25KT
13:30
V
30 °C 10 km+ - 250° 250° 16 kt METAR LFKF 241130Z AUTO 25016KT CAVOK 30/21 Q1013 TEMPO 24015G25KT
13:00
V
29 °C 10 km+ - 220° 220° 13 kt METAR LFKF 241100Z AUTO 22013KT CAVOK 29/22 Q1013 TEMPO 24015G25KT
12:30
V
29 °C 10 km+ - 230° 230° 15 kt METAR LFKF 241030Z AUTO 23015KT CAVOK 29/21 Q1013 TEMPO 24015G25KT
12:00
V
28 °C 10 km+ - 230° 230° 15 kt METAR LFKF 241000Z AUTO 23015KT CAVOK 28/21 Q1013 TEMPO 24015G25KT
11:30
V
28 °C 10 km+ - 220° 220° 15 kt METAR LFKF 240930Z AUTO 22015KT CAVOK 28/21 Q1013 TEMPO 24015G25KT
11:00
V
28 °C 10 km+ - 250° 250° 12 kt METAR LFKF 240900Z AUTO 25012KT 9999 FEW021 28/21 Q1014 NOSIG
10:30
V
27 °C 10 km+ - 230° 230° 11 kt METAR LFKF 240830Z AUTO 23011KT 9999 FEW020 27/21 Q1014 NOSIG
10:00
V
27 °C 10 km+ - 220° 220° 10 kt METAR LFKF 240800Z AUTO 22010KT 190V260 9999 FEW012 27/21 Q1014 NOSIG
09:30
V
27 °C 10 km+ - 220° 220° 10 kt METAR LFKF 240730Z AUTO 22010KT 9999 FEW018 27/21 Q1014 NOSIG
09:00
V
26 °C 10 km+ - 230° 230° 9 kt METAR LFKF 240700Z AUTO 23009KT 190V260 9999 FEW018 26/21 Q1014 NOSIG
08:30
V
26 °C 10 km+ - 260° 260° 9 kt METAR LFKF 240630Z AUTO 26009KT 230V300 9999 FEW017 26/21 Q1014 NOSIG
08:00
V
25 °C 10 km+ - 240° 240° 7 kt METAR LFKF 240600Z AUTO 24007KT 9999 FEW017 25/21 Q1014 NOSIG
07:30
M
24 °C 10 km+ 1,600 ft 240° 240° 6 kt METAR LFKF 240530Z AUTO 24006KT 9999 BKN016 24/20 Q1014 NOSIG
07:00
V
23 °C 10 km+ - 240° 240° 7 kt METAR LFKF 240500Z AUTO 24007KT 9999 SCT018 23/20 Q1014 TEMPO BKN012
06:30
M
22 °C 10 km+ 1,700 ft 230° 230° 6 kt METAR LFKF 240430Z AUTO 23006KT 9999 BKN017 22/20 Q1014 TEMPO BKN012
06:00
V
22 °C 10 km+ - 220° 220° 8 kt METAR LFKF 240400Z AUTO 22008KT 9999 FEW017 22/20 Q1014 TEMPO BKN012
05:30
V
22 °C 10 km+ - 230° 230° 10 kt METAR LFKF 240330Z AUTO 23010KT 9999 FEW018 22/20 Q1014 TEMPO BKN012
05:00
M
23 °C 10 km+ 1,800 ft 230° 230° 9 kt METAR LFKF 240300Z AUTO 23009KT 9999 BKN018 23/20 Q1014 TEMPO BKN012
04:30
V
22 °C 10 km+ - 230° 230° 8 kt METAR LFKF 240230Z AUTO 23008KT 9999 SCT018 22/20 Q1014
04:00
V
23 °C 10 km+ - 230° 230° 9 kt METAR LFKF 240200Z AUTO 23009KT 9999 FEW018 23/20 Q1014
03:30
V
23 °C 10 km+ - 230° 230° 9 kt METAR LFKF 240130Z AUTO 23009KT CAVOK 23/20 Q1015
03:00
V
23 °C 10 km+ - 220° 220° 10 kt METAR LFKF 240100Z AUTO 22010KT CAVOK 23/20 Q1015
02:30
V
23 °C 10 km+ - 220° 220° 10 kt METAR LFKF 240030Z AUTO 22010KT CAVOK 23/20 Q1015
02:00
V
23 °C 10 km+ - 220° 220° 11 kt METAR LFKF 240000Z AUTO 22011KT CAVOK 23/20 Q1015
01:30
V
23 °C 10 km+ - 220° 220° 12 kt METAR LFKF 232330Z AUTO 22012KT CAVOK 23/20 Q1015
01:00
V
23 °C 10 km+ - 230° 230° 15 kt METAR LFKF 232300Z AUTO 23015KT CAVOK 23/20 Q1015
00:30
V
23 °C 10 km+ - 230° 230° 14 kt METAR LFKF 232230Z AUTO 23014KT CAVOK 23/20 Q1015
00:00
V
23 °C 10 km+ - 230° 230° 17 kt METAR LFKF 232200Z AUTO 23017KT CAVOK 23/20 Q1015

July 23, 2024

Time Code Weather Temp. Visibility Ceiling Wind METAR/SPECI
23:30
V
23 °C 10 km+ - 230° 230° 14 kt METAR LFKF 232130Z AUTO 23014KT CAVOK 23/20 Q1015 NOSIG
23:00
V
23 °C 10 km+ - 220° 220° 11 kt METAR LFKF 232100Z AUTO 22011KT 190V250 CAVOK 23/20 Q1015 NOSIG
22:30
V
23 °C 10 km+ - 230° 230° 13 kt METAR LFKF 232030Z AUTO 23013KT CAVOK 23/20 Q1015 NOSIG
22:00
V
23 °C 10 km+ - 230° 230° 14 kt METAR LFKF 232000Z AUTO 23014KT CAVOK 23/20 Q1016 NOSIG
21:30
V
23 °C 10 km+ - 230° 230° 14 kt METAR LFKF 231930Z AUTO 23014KT CAVOK 23/20 Q1015 NOSIG
21:00
V
23 °C 10 km+ - 230° 230° 14 kt METAR LFKF 231900Z AUTO 23014KT CAVOK 23/20 Q1015 NOSIG
20:30
V
24 °C 10 km+ - 230° 230° 14 kt METAR LFKF 231830Z AUTO 23014KT CAVOK 24/20 Q1015 NOSIG
20:00
V
25 °C 10 km+ - 230° 230° 14 kt METAR LFKF 231800Z AUTO 23014KT CAVOK 25/20 Q1015 NOSIG
19:30
V
26 °C 10 km+ - 230° 230° 15 kt METAR LFKF 231730Z AUTO 23015KT CAVOK 26/20 Q1015 NOSIG
19:00
V
27 °C 10 km+ - 230° 230° 14 kt METAR LFKF 231700Z AUTO 23014KT CAVOK 27/20 Q1015 NOSIG
18:30
V
29 °C 10 km+ - 240° 240° 14 kt METAR LFKF 231630Z AUTO 24014KT CAVOK 29/19 Q1015 NOSIG
18:00
V
30 °C 10 km+ - 260° 260° 15 kt METAR LFKF 231600Z AUTO 26015KT CAVOK 30/19 Q1015 NOSIG
17:30
V
30 °C 10 km+ - 250° 250° 16 kt METAR LFKF 231530Z AUTO 25016KT CAVOK 30/19 Q1015 NOSIG
17:00
V
30 °C 10 km+ - 240° 240° 17 kt METAR LFKF 231500Z AUTO 24017KT CAVOK 30/20 Q1015 NOSIG
16:30
V
30 °C 10 km+ - 240° 240° 16 kt METAR LFKF 231430Z AUTO 24016KT CAVOK 30/19 Q1015 BECMG 24014G25KT
16:00
V
30 °C 10 km+ - 240° 240° 14 kt METAR LFKF 231400Z AUTO 24014KT CAVOK 30/19 Q1016 NOSIG
15:30
V
31 °C 10 km+ - 250° 250° 13 kt METAR LFKF 231330Z AUTO 25013KT CAVOK 31/19 Q1016 NOSIG
15:00
V
30 °C 10 km+ - 250° 250° 14 kt METAR LFKF 231300Z AUTO 25014KT CAVOK 30/18 Q1016 NOSIG
14:30
V
29 °C 10 km+ - 230° 230° 17 kt METAR LFKF 231230Z AUTO 23017KT CAVOK 29/20 Q1016 BECMG 24014G25KT
14:00
V
29 °C 10 km+ - 230° 230° 18 kt METAR LFKF 231200Z AUTO 23018KT CAVOK 29/20 Q1016 BECMG 24014G25KT
13:30
V
29 °C 10 km+ - 230° 230° 17 kt METAR LFKF 231130Z AUTO 23017KT CAVOK 29/20 Q1016 BECMG 24014G25KT
13:00
V
29 °C 10 km+ - 230° 230° 17 kt METAR LFKF 231100Z AUTO 23017KT 190V250 CAVOK 29/20 Q1016 BECMG 24014G25KT
12:30
V
28 °C 10 km+ - 230° 230° 17 kt METAR LFKF 231030Z AUTO 23017KT CAVOK 28/21 Q1016 BECMG 24014G25KT
12:00
V
28 °C 10 km+ - 230° 230° 17 kt METAR LFKF 231000Z AUTO 23017KT CAVOK 28/21 Q1016 BECMG 24014G25KT
11:30
V
28 °C 10 km+ - 240° 240° 16 kt METAR LFKF 230930Z AUTO 24016KT CAVOK 28/21 Q1016 BECMG 24014G25KT
11:00
V
28 °C 10 km+ - 240° 240° 15 kt METAR LFKF 230900Z AUTO 24015KT CAVOK 28/22 Q1016 BECMG 24014G25KT
10:30
V
28 °C 10 km+ - 230° 230° 16 kt METAR LFKF 230830Z AUTO 23016KT CAVOK 28/21 Q1016 BECMG 24013G23KT
10:00
V
28 °C 10 km+ - 220° 220° 13 kt METAR LFKF 230800Z AUTO 22013KT CAVOK 28/22 Q1016 NOSIG
09:30
V
27 °C 10 km+ - 230° 230° 14 kt METAR LFKF 230730Z AUTO 23014KT CAVOK 27/22 Q1016 NOSIG
09:00
V
27 °C 10 km+ - 230° 230° 14 kt METAR LFKF 230700Z AUTO 23014KT 190V250 CAVOK 27/22 Q1016 NOSIG
08:30
V
26 °C 10 km+ - 240° 240° 13 kt METAR LFKF 230630Z AUTO 24013KT 9999 SCT014 26/22 Q1015 NOSIG
08:00
M
25 °C 10 km+ 1,300 ft 240° 240° 10 kt METAR LFKF 230600Z AUTO 24010KT 9999 BKN013 25/22 Q1015 BECMG NSC
07:30
V
24 °C 10 km+ - 230° 230° 8 kt METAR LFKF 230530Z AUTO 23008KT 9999 FEW013 24/22 Q1015 NOSIG
07:00
V
23 °C 10 km+ - 220° 220° 7 kt METAR LFKF 230500Z AUTO 22007KT CAVOK 23/22 Q1015 TEMPO BKN010
06:30
V
21 °C 10 km+ - Var Var 2 kt METAR LFKF 230430Z AUTO VRB02KT CAVOK 21/20 Q1015 TEMPO BKN010
06:00
V
22 °C 10 km+ - 250° 250° 4 kt METAR LFKF 230400Z AUTO 25004KT 200V300 CAVOK 22/21 Q1015 TEMPO BKN010
05:30
V
22 °C 10 km+ - 210° 210° 5 kt METAR LFKF 230330Z AUTO 21005KT 170V250 9999 FEW010 22/21 Q1015 TEMPO BKN010
05:00
M
20 °C 10 km+ 1,000 ft 360° 360° 0 kt METAR LFKF 230300Z AUTO 00000KT 9999 BKN010 20/20 Q1014 NOSIG
04:30
V
21 °C 9 km - Var Var 2 kt METAR LFKF 230230Z AUTO VRB02KT 9000 SCT010 21/20 Q1014
04:00
V
21 °C 9 km - Var Var 1 kt METAR LFKF 230200Z AUTO VRB01KT 9000 NSC 21/20 Q1014
03:30
V
21 °C 10 km+ - Var Var 2 kt METAR LFKF 230130Z AUTO VRB02KT CAVOK 21/21 Q1014
03:00
V
21 °C 10 km+ - Var Var 3 kt METAR LFKF 230100Z AUTO VRB03KT CAVOK 21/20 Q1014
02:30
V
21 °C 10 km+ - Var Var 2 kt METAR LFKF 230030Z AUTO VRB02KT CAVOK 21/20 Q1014
02:00
V
22 °C 10 km+ - Var Var 1 kt METAR LFKF 230000Z AUTO VRB01KT CAVOK 22/21 Q1014
01:30
V
23 °C 10 km+ - 220° 220° 4 kt METAR LFKF 222330Z AUTO 22004KT CAVOK 23/22 Q1015
01:00
V
23 °C 10 km+ - Var Var 3 kt METAR LFKF 222300Z AUTO VRB03KT CAVOK 23/21 Q1014
00:30
V
23 °C 10 km+ - 260° 260° 4 kt METAR LFKF 222230Z AUTO 26004KT 220V330 CAVOK 23/21 Q1014
00:00
V
23 °C 10 km+ - Var Var 2 kt METAR LFKF 222200Z AUTO VRB02KT CAVOK 23/21 Q1014

July 22, 2024

Time Code Weather Temp. Visibility Ceiling Wind METAR/SPECI
23:30
V
24 °C 10 km+ - 240° 240° 6 kt METAR LFKF 222130Z AUTO 24006KT CAVOK 24/22 Q1014 NOSIG
23:00
V
24 °C 10 km+ - Var Var 3 kt METAR LFKF 222100Z AUTO VRB03KT CAVOK 24/22 Q1014 NOSIG
22:30
V
24 °C 10 km+ - 210° 210° 7 kt METAR LFKF 222030Z AUTO 21007KT CAVOK 24/22 Q1014 NOSIG
22:00
V
25 °C 10 km+ - 220° 220° 8 kt METAR LFKF 222000Z AUTO 22008KT CAVOK 25/22 Q1014 NOSIG
21:30
V
25 °C 10 km+ - 220° 220° 6 kt METAR LFKF 221930Z AUTO 22006KT 190V260 CAVOK 25/23 Q1014 NOSIG
21:00
V
26 °C 10 km+ - 210° 210° 5 kt METAR LFKF 221900Z AUTO 21005KT CAVOK 26/23 Q1013 NOSIG
20:30
V
27 °C 10 km+ - 230° 230° 8 kt METAR LFKF 221830Z AUTO 23008KT 9999 FEW076 27/22 Q1013 NOSIG
20:00
V
28 °C 10 km+ 7,400 ft 240° 240° 9 kt METAR LFKF 221800Z AUTO 24009KT 9999 BKN074 28/23 Q1013 NOSIG
19:30
V
28 °C 10 km+ - 240° 240° 7 kt METAR LFKF 221730Z AUTO 24007KT 200V270 9999 FEW074 28/22 Q1013 NOSIG
19:00
V
29 °C 10 km+ 7,800 ft 240° 240° 9 kt METAR LFKF 221700Z AUTO 24009KT 200V270 9999 SCT036 SCT060 BKN078 29/22 Q1012 NOSIG
18:30
V
29 °C 10 km+ 6,400 ft 210° 210° 8 kt METAR LFKF 221630Z AUTO 21008KT 170V250 9999 SCT049 BKN064 BKN088 29/23 Q1012 NOSIG
18:00
V
28 °C 10 km+ - 240° 240° 10 kt METAR LFKF 221600Z AUTO 24010KT 9999 SCT054 28/23 Q1012 NOSIG
17:30
V
28 °C 10 km+ - 230° 230° 11 kt METAR LFKF 221530Z AUTO 23011KT 200V260 9999 FEW018 28/23 Q1012 NOSIG
17:00
V
29 °C 10 km+ - 240° 240° 12 kt METAR LFKF 221500Z AUTO 24012KT 9999 FEW023 SCT030 29/23 Q1013 NOSIG
16:30
V
30 °C 10 km+ 3,400 ft 220° 220° 10 kt METAR LFKF 221430Z AUTO 22010KT 9999 SCT021 BKN034 BKN062 30/23 Q1012 NOSIG
16:00
M
28 °C 10 km+ 2,100 ft 210° 210° 10 kt METAR LFKF 221400Z AUTO 21010KT 180V240 9999 BKN021 BKN028 BKN038 28/23 Q1012 TEMPO FEW035CB BKN080
15:30
M
29 °C 10 km+ 1,700 ft 240° 240° 10 kt METAR LFKF 221330Z AUTO 24010KT 210V280 9999 BKN017 BKN029 BKN044 29/23 Q1012 TEMPO FEW035CB BKN080
15:00
V
29 °C 10 km+ 5,400 ft 210° 210° 11 kt METAR LFKF 221300Z AUTO 21011KT 180V240 9999 FEW017 SCT035 BKN054 29/23 Q1012 TEMPO FEW035CB BKN080
14:30
V
29 °C 10 km+ 6,600 ft 220° 220° 10 kt METAR LFKF 221230Z AUTO 22010KT 180V250 9999 FEW016 BKN066 BKN076 29/24 Q1012 TEMPO FEW035CB BKN080
14:00
M
29 °C 10 km+ 1,600 ft 230° 230° 13 kt METAR LFKF 221200Z AUTO 23013KT 9999 BKN016 BKN048 BKN070 29/23 Q1011 TEMPO 06015G25KT 4000 TSRA FEW035CB BKN080
13:30
V
29 °C 10 km+ 3,100 ft 240° 240° 16 kt METAR LFKF 221130Z AUTO 24016KT 210V270 9999 SCT012 SCT025 BKN031 29/23 Q1011 TEMPO 06015G25KT 4000 TSRA FEW035CB BKN080
13:00
V
27 °C 10 km+ 3,200 ft 240° 240° 13 kt METAR LFKF 221100Z AUTO 24013KT 9999 SCT014/// BKN032/// BKN056/// //////TCU 27/23 Q1011 TEMPO 06015G25KT 4000 TSRA FEW035CB BKN040 BKN070
12:30
V
26 °C 10 km+ 7,000 ft 240° 240° 17 kt METAR LFKF 221030Z AUTO 24017KT 9999 FEW026/// BKN070/// BKN080/// ///TCU 26/23 Q1011 TEMPO 06015G25KT 4000 TSRA FEW035CB BKN040 BKN070
12:00
V
28 °C 10 km+ - 240° 240° 17 kt METAR LFKF 221000Z AUTO 24017KT 9999 FEW076 28/22 Q1011 TEMPO 06015G25KT 4000 TSRA FEW035CB BKN040 BKN070
11:30
V
29 °C 10 km+ - 230° 230° 13 kt METAR LFKF 220930Z AUTO 23013KT CAVOK 29/22 Q1011 TEMPO 06015G25KT 4000 TSRA FEW035CB BKN040 BKN070
11:00
V
29 °C 10 km+ - 250° 250° 12 kt METAR LFKF 220900Z AUTO 25012KT CAVOK 29/22 Q1010 TEMPO 06015G25KT 4000 TSRA FEW035CB BKN040 BKN070
10:30
V
27 °C 10 km+ - 240° 240° 13 kt METAR LFKF 220830Z AUTO 24013KT 9999 FEW025 SCT110 27/21 Q1010 TEMPO 06015G25KT 4000 TSRA FEW035CB BKN040 BKN070
Report a change